createdAt,value
2019-03-04T00:02:06.826Z,8.81
2019-03-04T00:04:14.197Z,8.80
2019-03-04T00:08:53.758Z,8.82
2019-03-04T00:11:00.819Z,8.80
2019-03-04T00:13:07.632Z,8.80
2019-03-04T00:15:14.976Z,8.80
2019-03-04T00:17:22.259Z,8.82
2019-03-04T00:19:28.983Z,8.83
2019-03-04T00:21:35.715Z,8.85
2019-03-04T00:23:42.348Z,8.82
2019-03-04T00:25:49.398Z,8.82
2019-03-04T00:27:56.086Z,8.82
2019-03-04T00:30:03.294Z,8.80
2019-03-04T00:32:10.688Z,8.80
2019-03-04T00:34:18.748Z,8.81
2019-03-04T00:36:26.263Z,8.82
2019-03-04T00:38:33.517Z,8.82
2019-03-04T00:40:40.410Z,8.82
2019-03-04T00:42:47.700Z,8.81
2019-03-04T00:44:55.230Z,8.83
2019-03-04T00:47:02.295Z,8.80
2019-03-04T00:49:09.122Z,8.79
2019-03-04T00:51:16.330Z,8.78
2019-03-04T00:53:23.269Z,8.79
2019-03-04T00:55:30.333Z,8.77
2019-03-04T00:57:37.349Z,8.76
2019-03-04T00:59:44.582Z,8.76
2019-03-04T01:01:52.231Z,8.76
2019-03-04T01:03:59.002Z,8.73
2019-03-04T01:06:07.309Z,8.72
2019-03-04T01:08:14.836Z,8.73
2019-03-04T01:10:23.469Z,8.72
2019-03-04T01:12:32.242Z,8.70
2019-03-04T01:14:39.852Z,8.69
2019-03-04T01:16:47.329Z,8.70
2019-03-04T01:18:54.312Z,8.68
2019-03-04T01:21:03.300Z,8.68
2019-03-04T01:23:11.871Z,8.68
2019-03-04T01:25:20.587Z,8.66
2019-03-04T01:27:28.008Z,8.66
2019-03-04T01:29:34.922Z,8.66
2019-03-04T01:31:43.566Z,8.65
2019-03-04T01:33:51.594Z,8.64
2019-03-04T01:35:58.661Z,8.64
2019-03-04T01:38:05.662Z,8.68
2019-03-04T01:40:23.880Z,8.67
2019-03-04T01:42:31.068Z,8.66
2019-03-04T01:44:38.257Z,8.66
2019-03-04T01:46:45.195Z,8.63
2019-03-04T01:48:51.625Z,8.61
2019-03-04T01:50:59.049Z,8.60
2019-03-04T01:53:06.050Z,8.58
2019-03-04T01:55:16.609Z,8.58
2019-03-04T01:57:23.790Z,8.57
2019-03-04T01:59:30.486Z,8.57
2019-03-04T02:01:38.203Z,8.57
2019-03-04T02:03:45.146Z,8.57
2019-03-04T02:05:53.405Z,8.57
2019-03-04T02:08:00.270Z,8.55
2019-03-04T02:10:11.649Z,8.56
2019-03-04T02:12:18.548Z,8.54
2019-03-04T02:14:25.403Z,8.52
2019-03-04T02:16:32.637Z,8.52
2019-03-04T02:18:40.117Z,8.51
2019-03-04T02:20:47.242Z,8.52
2019-03-04T02:22:54.170Z,8.50
2019-03-04T02:25:01.053Z,8.49
2019-03-04T02:27:09.014Z,8.49
2019-03-04T02:29:15.748Z,8.49
2019-03-04T02:31:22.457Z,8.47
2019-03-04T02:33:29.314Z,8.47
2019-03-04T02:35:36.231Z,8.49
2019-03-04T02:37:44.182Z,8.48
2019-03-04T02:39:51.232Z,8.46
2019-03-04T02:41:58.300Z,8.47
2019-03-04T02:44:05.292Z,8.45
2019-03-04T02:46:12.527Z,8.45
2019-03-04T02:48:19.208Z,8.47
2019-03-04T02:52:46.545Z,8.44
2019-03-04T02:54:53.276Z,8.45
2019-03-04T02:57:00.236Z,8.46
2019-03-04T02:59:09.043Z,8.48
2019-03-04T03:01:16.328Z,8.49
2019-03-04T03:03:23.356Z,8.52
2019-03-04T03:05:30.122Z,8.56
2019-03-04T03:07:37.149Z,8.55
2019-03-04T03:09:43.763Z,8.55
2019-03-04T03:11:50.749Z,8.56
2019-03-04T03:13:57.492Z,8.57
2019-03-04T03:16:04.501Z,8.57
2019-03-04T03:18:12.809Z,8.56
2019-03-04T03:20:19.876Z,8.55
2019-03-04T03:22:27.318Z,8.56
2019-03-04T03:24:34.281Z,8.59
2019-03-04T03:26:41.202Z,8.61
2019-03-04T03:28:48.035Z,8.63
2019-03-04T03:30:55.609Z,8.64
2019-03-04T03:33:02.791Z,8.65
2019-03-04T03:35:11.388Z,8.64
2019-03-04T03:37:18.038Z,8.63
2019-03-04T03:39:24.918Z,8.61
2019-03-04T03:41:31.696Z,8.60
2019-03-04T03:43:38.593Z,8.63
2019-03-04T03:45:45.622Z,8.65
2019-03-04T03:47:52.546Z,8.67
2019-03-04T03:50:00.815Z,8.68
2019-03-04T03:52:07.692Z,8.69
2019-03-04T03:54:14.396Z,8.70
2019-03-04T03:56:21.173Z,8.69
2019-03-04T03:58:28.764Z,8.69
2019-03-04T04:00:35.791Z,8.64
2019-03-04T04:02:43.856Z,8.62
2019-03-04T04:04:50.440Z,8.60
2019-03-04T04:06:57.346Z,8.58
2019-03-04T04:09:05.887Z,8.54
2019-03-04T04:11:12.965Z,8.47
2019-03-04T04:13:21.349Z,8.38
2019-03-04T04:15:28.270Z,8.35
2019-03-04T04:17:37.352Z,8.27
2019-03-04T04:19:44.122Z,8.25
2019-03-04T04:21:51.949Z,8.22
2019-03-04T04:24:00.018Z,8.20
2019-03-04T04:26:08.811Z,8.15
2019-03-04T04:28:16.021Z,8.10
2019-03-04T04:30:31.233Z,8.02
2019-03-04T04:32:38.334Z,7.95
2019-03-04T04:34:45.519Z,7.86
2019-03-04T04:36:52.263Z,7.82
2019-03-04T04:39:01.391Z,7.80
2019-03-04T04:41:09.152Z,7.82
2019-03-04T04:43:15.976Z,7.84
2019-03-04T04:45:22.829Z,7.84
2019-03-04T04:47:29.937Z,7.79
2019-03-04T04:49:37.030Z,7.71
2019-03-04T04:51:44.086Z,7.63
2019-03-04T04:53:51.014Z,7.57
2019-03-04T04:55:57.469Z,7.55
2019-03-04T04:58:04.773Z,7.60
2019-03-04T05:00:17.421Z,7.65
2019-03-04T05:02:23.880Z,7.72
2019-03-04T05:04:31.361Z,7.80
2019-03-04T05:06:38.356Z,7.87
2019-03-04T05:08:45.152Z,7.92
2019-03-04T05:10:52.292Z,7.97
2019-03-04T05:12:59.413Z,8.03
2019-03-04T05:15:10.820Z,8.08
2019-03-04T05:17:17.613Z,8.09
2019-03-04T05:19:24.784Z,8.10
2019-03-04T05:21:31.663Z,8.08
2019-03-04T05:23:38.323Z,8.06
2019-03-04T05:25:46.580Z,8.04
2019-03-04T05:27:53.793Z,8.03
2019-03-04T05:30:00.976Z,8.21
2019-03-04T05:32:08.101Z,8.42
2019-03-04T05:34:16.293Z,8.45
2019-03-04T05:36:23.045Z,8.63
2019-03-04T05:38:30.095Z,8.69
2019-03-04T05:40:38.220Z,8.84
2019-03-04T05:42:45.086Z,8.84
2019-03-04T05:44:52.049Z,8.93
2019-03-04T05:46:58.859Z,8.82
2019-03-04T05:49:05.886Z,9.00
2019-03-04T05:51:13.051Z,8.82
2019-03-04T05:53:20.114Z,9.05
2019-03-04T05:55:27.178Z,8.94
2019-03-04T05:57:33.817Z,8.84
2019-03-04T05:59:45.101Z,9.02
2019-03-04T06:01:57.211Z,9.10
2019-03-04T06:04:06.554Z,9.09
2019-03-04T06:06:13.509Z,9.29
2019-03-04T06:08:20.329Z,9.39
2019-03-04T06:10:28.503Z,9.31
2019-03-04T06:12:36.429Z,9.28
2019-03-04T06:14:43.115Z,9.42
2019-03-04T06:16:49.878Z,9.29
2019-03-04T06:18:56.530Z,9.13
2019-03-04T06:21:03.059Z,9.08
2019-03-04T06:23:09.999Z,8.97
2019-03-04T06:25:30.778Z,8.90
2019-03-04T06:27:37.589Z,8.85
2019-03-04T06:29:44.419Z,8.80
2019-03-04T06:31:52.848Z,8.80
2019-03-04T06:33:59.802Z,8.81
2019-03-04T06:36:06.721Z,8.79
2019-03-04T06:38:13.843Z,8.74
2019-03-04T06:40:22.340Z,8.72
2019-03-04T06:42:29.235Z,8.77
2019-03-04T06:44:36.159Z,8.81
2019-03-04T06:46:43.090Z,8.85
2019-03-04T06:48:50.239Z,8.87
2019-03-04T06:50:58.238Z,8.80
2019-03-04T06:53:05.439Z,8.74
2019-03-04T06:55:22.609Z,8.71
2019-03-04T06:57:30.099Z,8.71
2019-03-04T07:00:17.926Z,8.79
2019-03-04T07:02:35.178Z,8.99
2019-03-04T07:05:21.136Z,9.30
2019-03-04T07:07:28.364Z,9.55
2019-03-04T07:09:35.301Z,9.61
2019-03-04T07:11:42.709Z,9.61
2019-03-04T07:13:50.947Z,9.55
2019-03-04T07:15:57.849Z,9.42
2019-03-04T07:18:04.730Z,9.37
2019-03-04T07:20:22.129Z,9.41
2019-03-04T07:22:28.942Z,9.46
2019-03-04T07:24:35.807Z,9.46
2019-03-04T07:26:42.710Z,9.49
2019-03-04T07:28:49.649Z,9.58
2019-03-04T07:30:56.695Z,9.72
2019-03-04T07:33:04.631Z,9.80
2019-03-04T07:35:13.929Z,9.85
2019-03-04T07:37:20.841Z,9.96
2019-03-04T07:39:27.851Z,10.04
2019-03-04T07:41:34.758Z,10.09
2019-03-04T07:43:41.928Z,10.12
2019-03-04T07:45:48.883Z,10.17
2019-03-04T07:47:55.889Z,10.20
2019-03-04T07:50:02.599Z,10.17
2019-03-04T07:52:09.733Z,10.18
2019-03-04T07:54:16.653Z,10.24
2019-03-04T07:56:23.309Z,10.29
2019-03-04T07:58:30.037Z,10.35
2019-03-04T08:00:36.876Z,10.39
2019-03-04T08:02:44.039Z,10.51
2019-03-04T08:04:50.849Z,10.59
2019-03-04T08:07:24.487Z,10.62
2019-03-04T08:10:18.181Z,10.62
2019-03-04T08:12:45.611Z,10.57
2019-03-04T08:14:52.579Z,10.56
2019-03-04T08:16:59.754Z,10.56
2019-03-04T08:19:07.179Z,10.67
2019-03-04T08:21:14.501Z,10.73
2019-03-04T08:23:24.082Z,10.83
2019-03-04T08:25:32.440Z,10.94
2019-03-04T08:27:40.046Z,11.07
2019-03-04T08:29:48.481Z,11.17
2019-03-04T08:31:56.126Z,11.26
2019-03-04T08:34:02.929Z,11.29
2019-03-04T08:36:10.039Z,11.26
2019-03-04T08:38:17.090Z,11.26
2019-03-04T08:40:23.973Z,11.35
2019-03-04T08:42:31.069Z,11.47
2019-03-04T08:44:37.699Z,11.50
2019-03-04T08:46:45.280Z,11.59
2019-03-04T08:48:52.067Z,11.73
2019-03-04T08:50:59.239Z,11.83
2019-03-04T08:53:07.901Z,12.12
2019-03-04T08:55:18.110Z,12.44
2019-03-04T08:57:25.136Z,12.48
2019-03-04T08:59:32.163Z,12.63
2019-03-04T09:01:38.969Z,12.73
2019-03-04T09:03:45.915Z,12.77
2019-03-04T09:05:53.014Z,12.89
2019-03-04T09:08:00.384Z,12.92
2019-03-04T09:10:15.119Z,12.93
2019-03-04T09:14:53.789Z,12.78
2019-03-04T09:17:00.632Z,12.65
2019-03-04T09:19:07.939Z,12.53
2019-03-04T09:21:14.611Z,12.42
2019-03-04T09:23:21.271Z,12.39
2019-03-04T09:25:37.900Z,12.25
2019-03-04T09:27:46.350Z,12.28
2019-03-04T09:29:53.449Z,12.33
2019-03-04T09:32:00.477Z,12.38
2019-03-04T09:34:07.991Z,12.45
2019-03-04T09:36:16.487Z,12.51
2019-03-04T09:38:23.699Z,12.55
2019-03-04T09:40:36.371Z,12.61
2019-03-04T09:42:44.159Z,12.62
2019-03-04T09:44:51.606Z,12.68
2019-03-04T09:46:58.520Z,12.74
2019-03-04T09:49:05.849Z,12.84
2019-03-04T09:51:12.656Z,12.93
2019-03-04T09:53:19.836Z,13.00
2019-03-04T09:55:26.869Z,13.14
2019-03-04T09:57:33.832Z,13.31
2019-03-04T09:59:41.689Z,13.27
2019-03-04T10:01:51.819Z,13.34
2019-03-04T10:04:14.759Z,13.45
2019-03-04T10:06:28.599Z,13.65
2019-03-04T10:08:57.614Z,13.82
2019-03-04T10:11:25.286Z,13.95
2019-03-04T10:13:54.491Z,14.00
2019-03-04T10:16:33.006Z,14.18
2019-03-04T10:19:02.200Z,14.17
2019-03-04T10:21:53.219Z,14.23
2019-03-04T10:24:42.492Z,14.47
2019-03-04T10:27:08.459Z,14.14
2019-03-04T10:29:28.549Z,14.19
2019-03-04T10:32:00.606Z,14.08
2019-03-04T10:34:34.143Z,14.08
2019-03-04T10:36:53.621Z,14.11
2019-03-04T10:39:22.102Z,14.22
2019-03-04T10:42:07.472Z,14.12
2019-03-04T10:44:48.538Z,13.94
2019-03-04T10:46:57.727Z,13.65
2019-03-04T10:49:05.590Z,13.47
2019-03-04T10:51:12.759Z,13.42
2019-03-04T10:53:19.510Z,13.31
2019-03-04T10:55:26.690Z,13.26
2019-03-04T10:57:35.158Z,13.22
2019-03-04T10:59:42.120Z,13.19
2019-03-04T11:01:50.096Z,13.15
2019-03-04T11:03:57.319Z,13.20
2019-03-04T11:06:04.542Z,13.09
2019-03-04T11:08:12.470Z,13.15
2019-03-04T11:10:19.706Z,13.18
2019-03-04T11:12:29.354Z,13.14
2019-03-04T11:14:36.289Z,13.07
2019-03-04T11:16:43.160Z,12.96
2019-03-04T11:18:50.053Z,12.91
2019-03-04T11:20:56.944Z,12.85
2019-03-04T11:23:04.179Z,12.77
2019-03-04T11:25:12.060Z,12.79
2019-03-04T11:27:19.149Z,12.76
2019-03-04T11:29:26.740Z,12.72
2019-03-04T11:31:33.743Z,12.63
2019-03-04T11:33:41.086Z,12.65
2019-03-04T11:35:48.079Z,12.68
2019-03-04T11:37:54.889Z,12.81
2019-03-04T11:40:03.567Z,12.90
2019-03-04T11:42:10.616Z,13.05
2019-03-04T11:44:17.784Z,13.22
2019-03-04T11:46:25.132Z,13.39
2019-03-04T11:48:32.559Z,13.50
2019-03-04T11:50:40.168Z,13.59
2019-03-04T11:52:48.011Z,13.52
2019-03-04T11:54:55.496Z,13.50
2019-03-04T11:57:02.649Z,13.47
2019-03-04T11:59:09.599Z,13.47
2019-03-04T12:01:24.401Z,13.34
2019-03-04T12:03:31.801Z,13.29
2019-03-04T12:05:41.120Z,13.36
2019-03-04T12:07:48.649Z,13.48
2019-03-04T12:09:55.529Z,13.66
2019-03-04T12:12:02.349Z,13.83
2019-03-04T12:14:09.876Z,14.03
2019-03-04T12:16:17.166Z,14.17
2019-03-04T12:18:27.179Z,14.17
2019-03-04T12:20:34.328Z,14.15
2019-03-04T12:22:42.856Z,14.05
2019-03-04T12:24:50.257Z,13.90
2019-03-04T12:26:57.350Z,13.85
2019-03-04T12:29:04.920Z,13.73
2019-03-04T12:31:12.148Z,13.76
2019-03-04T12:33:19.576Z,13.77
2019-03-04T12:35:26.970Z,13.79
2019-03-04T12:37:34.247Z,13.88
2019-03-04T12:39:41.840Z,13.84
2019-03-04T12:41:49.778Z,13.77
2019-03-04T12:43:56.979Z,13.78
2019-03-04T12:46:03.994Z,13.79
2019-03-04T12:48:10.998Z,13.79
2019-03-04T12:50:28.000Z,13.93
2019-03-04T12:52:34.909Z,14.07
2019-03-04T12:54:41.950Z,14.29
2019-03-04T12:56:48.806Z,14.52
2019-03-04T12:58:56.097Z,14.65
2019-03-04T13:01:03.019Z,14.87
2019-03-04T13:03:12.720Z,14.86
2019-03-04T13:05:20.359Z,14.98
2019-03-04T13:07:27.429Z,14.97
2019-03-04T13:09:34.399Z,14.98
2019-03-04T13:11:42.969Z,15.03
2019-03-04T13:13:49.782Z,14.98
2019-03-04T13:15:56.810Z,14.98
2019-03-04T13:18:04.827Z,15.08
2019-03-04T13:20:15.569Z,15.24
2019-03-04T13:22:22.858Z,15.28
2019-03-04T13:24:29.766Z,15.40
2019-03-04T13:26:36.630Z,15.59
2019-03-04T13:28:43.153Z,15.70
2019-03-04T13:30:50.077Z,15.63
2019-03-04T13:32:57.278Z,15.46
2019-03-04T13:35:04.981Z,15.53
2019-03-04T13:37:11.975Z,15.56
2019-03-04T13:39:18.755Z,15.50
2019-03-04T13:41:25.816Z,15.41
2019-03-04T13:43:32.786Z,15.24
2019-03-04T13:45:39.628Z,15.20
2019-03-04T13:47:47.192Z,15.16
2019-03-04T13:49:54.106Z,15.12
2019-03-04T13:52:00.866Z,15.10
2019-03-04T13:54:07.893Z,14.98
2019-03-04T13:56:14.739Z,14.97
2019-03-04T13:58:21.795Z,14.98
2019-03-04T14:00:37.550Z,14.97
2019-03-04T14:02:44.573Z,14.95
2019-03-04T14:04:51.434Z,14.93
2019-03-04T14:06:58.398Z,14.84
2019-03-04T14:09:06.383Z,14.79
2019-03-04T14:11:14.835Z,14.68
2019-03-04T14:13:21.913Z,14.57
2019-03-04T14:15:35.587Z,14.57
2019-03-04T14:17:42.575Z,14.56
2019-03-04T14:19:49.235Z,14.54
2019-03-04T14:21:56.560Z,14.57
2019-03-04T14:24:03.695Z,14.55
2019-03-04T14:26:10.915Z,14.55
2019-03-04T14:28:17.743Z,14.54
2019-03-04T14:30:25.976Z,14.51
2019-03-04T14:32:33.152Z,14.48
2019-03-04T14:34:39.900Z,14.49
2019-03-04T14:36:46.945Z,14.47
2019-03-04T14:38:54.769Z,14.47
2019-03-04T14:41:02.264Z,14.44
2019-03-04T14:43:09.476Z,14.44
2019-03-04T14:45:27.653Z,14.43
2019-03-04T14:47:34.993Z,14.45
2019-03-04T14:49:45.119Z,14.41
2019-03-04T14:51:51.913Z,14.41
2019-03-04T14:53:59.235Z,14.41
2019-03-04T14:56:06.066Z,14.38
2019-03-04T14:58:13.172Z,14.36
2019-03-04T15:00:35.896Z,14.36
2019-03-04T15:02:43.035Z,14.40
2019-03-04T15:04:50.693Z,14.45
2019-03-04T15:06:57.666Z,14.47
2019-03-04T15:09:07.897Z,14.50
2019-03-04T15:11:15.366Z,14.57
2019-03-04T15:13:23.628Z,14.65
2019-03-04T15:15:33.220Z,14.66
2019-03-04T15:17:40.465Z,14.73
2019-03-04T15:19:47.543Z,14.81
2019-03-04T15:21:54.542Z,14.95
2019-03-04T15:24:01.645Z,15.00
2019-03-04T15:26:08.858Z,14.98
2019-03-04T15:28:27.247Z,15.00
2019-03-04T15:30:34.755Z,14.95
2019-03-04T15:32:42.132Z,14.86
2019-03-04T15:34:49.543Z,14.80
2019-03-04T15:36:56.646Z,14.77
2019-03-04T15:39:05.544Z,14.71
2019-03-04T15:41:13.178Z,14.63
2019-03-04T15:43:20.524Z,14.59
2019-03-04T15:45:27.795Z,14.55
2019-03-04T15:47:36.746Z,14.53
2019-03-04T15:49:43.915Z,14.57
2019-03-04T15:51:51.195Z,14.57
2019-03-04T15:53:58.315Z,14.54
2019-03-04T15:56:05.524Z,14.52
2019-03-04T15:58:12.916Z,14.46
2019-03-04T16:00:20.527Z,14.43
2019-03-04T16:02:28.764Z,14.45
2019-03-04T16:04:36.093Z,14.44
2019-03-04T16:06:43.824Z,14.41
2019-03-04T16:08:52.012Z,14.49
2019-03-04T16:10:59.391Z,14.36
2019-03-04T16:13:08.304Z,14.05
2019-03-04T16:15:20.992Z,13.40
2019-03-04T16:17:28.571Z,12.85
2019-03-04T16:19:36.084Z,12.30
2019-03-04T16:21:44.478Z,11.96
2019-03-04T16:23:51.604Z,11.71
2019-03-04T16:26:01.885Z,11.45
2019-03-04T16:28:19.225Z,11.30
2019-03-04T16:30:26.684Z,11.21
2019-03-04T16:32:34.045Z,11.11
2019-03-04T16:34:41.792Z,10.99
2019-03-04T16:36:49.285Z,10.84
2019-03-04T16:38:56.564Z,10.73
2019-03-04T16:41:03.805Z,10.66
2019-03-04T16:43:11.124Z,10.58
2019-03-04T16:45:23.198Z,10.50
2019-03-04T16:47:31.476Z,10.41
2019-03-04T16:49:39.210Z,10.39
2019-03-04T16:51:46.548Z,10.32
2019-03-04T16:53:53.786Z,10.25
2019-03-04T16:56:01.048Z,10.14
2019-03-04T16:58:08.230Z,10.01
2019-03-04T17:00:22.230Z,9.88
2019-03-04T17:02:29.477Z,9.77
2019-03-04T17:04:36.799Z,9.66
2019-03-04T17:06:44.221Z,9.60
2019-03-04T17:08:51.785Z,9.51
2019-03-04T17:10:58.967Z,9.42
2019-03-04T17:13:06.269Z,9.34
2019-03-04T17:15:19.846Z,9.24
2019-03-04T17:17:27.299Z,9.16
2019-03-04T17:19:34.891Z,9.11
2019-03-04T17:21:42.598Z,9.07
2019-03-04T17:23:51.045Z,9.02
2019-03-04T17:25:58.488Z,8.97
2019-03-04T17:28:06.199Z,8.98
2019-03-04T17:30:23.019Z,8.95
2019-03-04T17:32:30.561Z,8.92
2019-03-04T17:34:37.820Z,8.89
2019-03-04T17:36:45.039Z,8.85
2019-03-04T17:38:52.336Z,8.79
2019-03-04T17:40:59.617Z,8.76
2019-03-04T17:43:07.558Z,8.71
2019-03-04T17:45:29.467Z,8.67
2019-03-04T17:47:36.835Z,8.61
2019-03-04T17:49:44.077Z,8.55
2019-03-04T17:51:51.198Z,8.52
2019-03-04T17:53:58.367Z,8.51
2019-03-04T17:56:05.848Z,8.49
2019-03-04T17:58:16.967Z,8.49
2019-03-04T18:00:25.180Z,8.49
2019-03-04T18:02:32.456Z,8.48
2019-03-04T18:04:39.715Z,8.48
2019-03-04T18:06:47.408Z,8.46
2019-03-04T18:08:54.669Z,8.45
2019-03-04T18:11:01.878Z,8.43
2019-03-04T18:13:13.789Z,8.42
2019-03-04T18:15:32.159Z,8.43
2019-03-04T18:17:39.594Z,8.45
2019-03-04T18:19:46.807Z,8.48
2019-03-04T18:21:54.269Z,8.52
2019-03-04T18:24:03.419Z,8.55
2019-03-04T18:26:15.189Z,8.60
2019-03-04T18:29:01.019Z,8.61
2019-03-04T18:31:56.149Z,8.66
2019-03-04T18:34:30.341Z,8.68
2019-03-04T18:36:47.808Z,8.73
2019-03-04T18:39:31.126Z,8.76
2019-03-04T18:41:54.605Z,8.78
2019-03-04T18:44:33.388Z,8.81
2019-03-04T18:47:04.397Z,8.81
2019-03-04T18:49:12.196Z,8.88
2019-03-04T18:51:20.078Z,8.89
2019-03-04T18:53:27.327Z,8.92
2019-03-04T18:55:37.246Z,8.93
2019-03-04T18:57:44.227Z,8.97
2019-03-04T18:59:51.705Z,8.99
2019-03-04T19:01:59.585Z,9.07
2019-03-04T19:04:07.076Z,9.14
2019-03-04T19:06:15.786Z,9.16
2019-03-04T19:08:22.976Z,9.17
2019-03-04T19:10:30.376Z,9.19
2019-03-04T19:12:37.754Z,9.25
2019-03-04T19:14:46.135Z,9.28
2019-03-04T19:16:53.796Z,9.32
2019-03-04T19:19:01.626Z,9.34
2019-03-04T19:21:09.605Z,9.42
2019-03-04T19:23:18.117Z,9.49
2019-03-04T19:25:26.196Z,9.49
2019-03-04T19:27:33.676Z,9.50
2019-03-04T19:29:41.782Z,9.61
2019-03-04T19:31:49.583Z,9.57
2019-03-04T19:33:56.872Z,9.70
2019-03-04T19:36:04.504Z,9.78
2019-03-04T19:38:13.584Z,9.84
2019-03-04T19:40:21.430Z,9.84
2019-03-04T19:42:29.985Z,9.80
2019-03-04T19:44:37.293Z,9.82
2019-03-04T19:46:45.659Z,9.80
2019-03-04T19:48:54.325Z,9.88
2019-03-04T19:51:02.067Z,10.03
2019-03-04T19:53:12.628Z,10.17
2019-03-04T19:55:20.466Z,10.19
2019-03-04T19:57:30.326Z,10.22
2019-03-04T19:59:37.878Z,10.29
2019-03-04T20:01:45.738Z,10.33
2019-03-04T20:03:53.441Z,10.37
2019-03-04T20:06:00.886Z,10.39
2019-03-04T20:08:08.385Z,10.39
2019-03-04T20:10:18.459Z,10.53
2019-03-04T20:12:27.976Z,10.73
2019-03-04T20:14:37.619Z,10.93
2019-03-04T20:16:45.998Z,10.97
2019-03-04T20:18:53.186Z,11.04
2019-03-04T20:21:00.575Z,11.13
2019-03-04T20:23:07.908Z,11.17
2019-03-04T20:25:17.325Z,11.19
2019-03-04T20:27:26.908Z,11.32
2019-03-04T20:29:34.894Z,11.22
2019-03-04T20:31:42.228Z,10.88
2019-03-04T20:33:49.865Z,10.50
2019-03-04T20:35:59.303Z,10.15
2019-03-04T20:38:23.556Z,9.87
2019-03-04T20:40:30.668Z,9.63
2019-03-04T20:42:37.889Z,9.46
2019-03-04T20:44:46.780Z,9.34
2019-03-04T20:46:54.338Z,9.26
2019-03-04T20:49:01.773Z,9.21
2019-03-04T20:51:12.966Z,9.16
2019-03-04T20:53:23.943Z,9.08
2019-03-04T20:55:31.304Z,9.00
2019-03-04T20:57:39.462Z,8.92
2019-03-04T20:59:47.067Z,8.83
2019-03-04T21:01:54.463Z,8.71
2019-03-04T21:04:01.640Z,8.61
2019-03-04T21:06:09.223Z,8.45
2019-03-04T21:08:16.528Z,8.34
2019-03-04T21:10:24.094Z,8.22
2019-03-04T21:12:31.314Z,8.13
2019-03-04T21:14:38.587Z,8.07
2019-03-04T21:16:45.862Z,8.00
2019-03-04T21:18:53.288Z,7.88
2019-03-04T21:21:00.852Z,7.80
2019-03-04T21:23:08.362Z,7.73
2019-03-04T21:25:34.570Z,7.65
2019-03-04T21:27:41.973Z,7.58
2019-03-04T21:30:11.496Z,7.49
2019-03-04T21:32:31.565Z,7.40
2019-03-04T21:35:10.557Z,7.33
2019-03-04T21:37:24.900Z,7.27
2019-03-04T21:39:41.639Z,7.22
2019-03-04T21:42:00.356Z,7.25
2019-03-04T21:44:13.025Z,7.20
2019-03-04T21:46:52.189Z,7.17
2019-03-04T21:49:03.752Z,7.12
2019-03-04T21:51:18.551Z,7.11
2019-03-04T21:53:42.005Z,7.12
2019-03-04T21:56:14.291Z,7.06
2019-03-04T21:58:21.718Z,6.97
2019-03-04T22:00:33.252Z,6.92
2019-03-04T22:02:44.569Z,6.90
2019-03-04T22:04:51.733Z,6.90
2019-03-04T22:07:01.313Z,6.89
2019-03-04T22:09:09.016Z,6.91
2019-03-04T22:11:17.287Z,6.91
2019-03-04T22:13:24.140Z,6.92
2019-03-04T22:15:31.209Z,6.91
2019-03-04T22:17:38.363Z,6.89
2019-03-04T22:19:46.667Z,6.89
2019-03-04T22:21:53.983Z,6.86
2019-03-04T22:24:01.092Z,6.84
2019-03-04T22:26:08.069Z,6.84
2019-03-04T22:28:15.088Z,6.87
2019-03-04T22:30:23.372Z,6.89
2019-03-04T22:32:31.032Z,6.86
2019-03-04T22:34:39.163Z,6.87
2019-03-04T22:36:46.122Z,6.88
2019-03-04T22:38:53.103Z,6.88
2019-03-04T22:41:00.219Z,6.89
2019-03-04T22:43:07.788Z,6.89
2019-03-04T22:45:20.917Z,6.91
2019-03-04T22:47:28.108Z,6.95
2019-03-04T22:49:36.563Z,6.95
2019-03-04T22:51:43.654Z,6.97
2019-03-04T22:53:51.001Z,6.97
2019-03-04T22:55:58.649Z,6.97
2019-03-04T22:58:05.591Z,6.97
2019-03-04T23:00:43.479Z,6.97
2019-03-04T23:02:55.090Z,7.00
2019-03-04T23:05:02.358Z,6.97
2019-03-04T23:07:12.153Z,6.99
2019-03-04T23:09:20.698Z,7.00
2019-03-04T23:11:31.759Z,6.99
2019-03-04T23:14:04.251Z,6.96
2019-03-04T23:16:12.688Z,6.92
2019-03-04T23:18:20.578Z,6.91
2019-03-04T23:20:28.045Z,6.93
2019-03-04T23:22:34.791Z,6.96
2019-03-04T23:24:41.658Z,6.98
2019-03-04T23:26:48.571Z,6.99
2019-03-04T23:28:56.071Z,7.00
2019-03-04T23:31:03.033Z,7.02
2019-03-04T23:33:10.032Z,7.06
2019-03-04T23:35:16.891Z,7.10
2019-03-04T23:37:23.859Z,7.12
2019-03-04T23:39:30.818Z,7.12
2019-03-04T23:41:37.545Z,7.11
2019-03-04T23:43:45.123Z,7.07
2019-03-04T23:45:52.040Z,7.08
2019-03-04T23:47:59.142Z,7.11
2019-03-04T23:50:23.853Z,7.10
2019-03-04T23:52:30.660Z,7.06
2019-03-04T23:54:37.613Z,7.02
2019-03-04T23:56:44.632Z,7.01
2019-03-04T23:58:53.028Z,7.00
